createdAt,value
2022-12-25T00:00:31.337Z,21.80
2022-12-25T00:03:22.249Z,17.37
2022-12-25T00:05:52.749Z,21.47
2022-12-25T00:08:24.363Z,21.63
2022-12-25T00:11:01.248Z,30.67
2022-12-25T00:13:33.288Z,22.60
2022-12-25T00:16:11.382Z,25.93
2022-12-25T00:18:43.132Z,24.37
2022-12-25T00:21:14.061Z,21.47
2022-12-25T00:23:46.444Z,24.87
2022-12-25T00:26:20.147Z,21.90
2022-12-25T00:28:54.614Z,16.30
2022-12-25T00:31:29.415Z,25.27
2022-12-25T00:34:01.862Z,31.20
2022-12-25T00:36:37.784Z,24.30
2022-12-25T00:39:12.983Z,25.07
2022-12-25T00:41:55.861Z,21.30
2022-12-25T00:44:27.452Z,24.53
2022-12-25T00:47:01.514Z,25.30
2022-12-25T00:49:33.452Z,27.03
2022-12-25T00:52:04.949Z,16.37
2022-12-25T00:54:36.316Z,19.47
2022-12-25T00:57:07.315Z,28.43
2022-12-25T00:59:38.606Z,22.20
2022-12-25T01:02:25.193Z,20.27
2022-12-25T01:04:58.696Z,24.33
2022-12-25T01:07:30.589Z,24.37
2022-12-25T01:10:14.202Z,20.10
2022-12-25T01:12:46.004Z,25.10
2022-12-25T01:15:17.117Z,24.93
2022-12-25T01:17:54.165Z,26.07
2022-12-25T01:20:25.054Z,23.57
2022-12-25T01:22:58.771Z,30.57
2022-12-25T01:25:32.669Z,28.40
2022-12-25T01:28:02.778Z,22.67
2022-12-25T01:30:34.344Z,33.73
2022-12-25T01:33:07.571Z,26.20
2022-12-25T01:35:42.036Z,23.87
2022-12-25T01:38:12.495Z,18.53
2022-12-25T01:40:43.178Z,27.17
2022-12-25T01:43:24.949Z,24.33
2022-12-25T01:45:55.805Z,17.77
2022-12-25T01:48:40.188Z,22.87
2022-12-25T01:51:24.307Z,25.33
2022-12-25T01:53:59.320Z,27.63
2022-12-25T01:56:32.946Z,18.97
2022-12-25T01:59:11.162Z,35.10
2022-12-25T02:01:43.735Z,27.80
2022-12-25T02:04:24.928Z,18.70
2022-12-25T02:07:15.749Z,25.47
2022-12-25T02:09:46.726Z,26.47
2022-12-25T02:12:21.414Z,23.47
2022-12-25T02:14:54.739Z,20.67
2022-12-25T02:17:41.336Z,25.60
2022-12-25T02:20:36.097Z,23.80
2022-12-25T02:23:37.313Z,19.67
2022-12-25T02:26:19.487Z,25.77
2022-12-25T02:29:01.707Z,28.50
2022-12-25T02:31:54.368Z,24.03
2022-12-25T02:34:38.248Z,25.67
2022-12-25T02:37:15.016Z,24.53
2022-12-25T02:40:02.551Z,24.83
2022-12-25T02:42:56.426Z,28.03
2022-12-25T02:45:56.492Z,46.37
2022-12-25T02:48:42.101Z,20.57
2022-12-25T02:51:27.802Z,27.33
2022-12-25T02:54:13.079Z,32.03
2022-12-25T02:57:03.264Z,30.57
2022-12-25T02:59:51.461Z,32.13
2022-12-25T03:02:39.055Z,26.70
2022-12-25T03:05:25.475Z,27.60
2022-12-25T03:07:56.936Z,26.97
2022-12-25T03:10:41.120Z,24.20
2022-12-25T03:13:16.396Z,22.23
2022-12-25T03:15:59.235Z,27.53
2022-12-25T03:18:34.145Z,28.60
2022-12-25T03:21:20.586Z,26.63
2022-12-25T03:24:09.781Z,30.77
2022-12-25T03:26:52.342Z,24.67
2022-12-25T03:29:34.854Z,30.70
2022-12-25T03:32:15.601Z,22.93
2022-12-25T03:35:13.499Z,23.50
2022-12-25T03:38:34.326Z,26.33
2022-12-25T03:41:25.901Z,30.03
2022-12-25T03:44:14.532Z,25.97
2022-12-25T03:47:03.605Z,32.70
2022-12-25T03:49:54.542Z,24.53
2022-12-25T03:52:43.561Z,41.60
2022-12-25T03:55:28.304Z,48.93
2022-12-25T03:58:11.444Z,22.53
2022-12-25T04:00:54.215Z,27.63
2022-12-25T04:03:37.333Z,28.10
2022-12-25T04:06:20.139Z,25.27
2022-12-25T04:09:05.809Z,32.30
2022-12-25T04:12:02.707Z,28.67
2022-12-25T04:14:45.917Z,26.93
2022-12-25T04:17:28.385Z,28.40
2022-12-25T04:20:11.110Z,28.07
2022-12-25T04:22:53.532Z,27.40
2022-12-25T04:25:38.819Z,36.80
2022-12-25T04:28:21.184Z,28.23
2022-12-25T04:31:04.228Z,36.10
2022-12-25T04:33:46.624Z,39.57
2022-12-25T04:36:16.893Z,26.17
2022-12-25T04:38:46.966Z,74.17
2022-12-25T04:41:19.848Z,32.63
2022-12-25T04:43:49.849Z,38.70
2022-12-25T04:46:20.345Z,48.07
2022-12-25T04:48:50.300Z,172.83
2022-12-25T04:51:21.886Z,76.63
2022-12-25T04:53:52.773Z,38.93
2022-12-25T04:56:25.959Z,31.90
2022-12-25T04:58:55.916Z,27.40
2022-12-25T05:01:26.378Z,31.57
2022-12-25T05:03:56.477Z,27.07
2022-12-25T05:06:26.788Z,28.10
2022-12-25T05:08:56.951Z,27.57
2022-12-25T05:11:29.975Z,21.87
2022-12-25T05:14:00.276Z,25.57
2022-12-25T05:16:31.001Z,24.33
2022-12-25T05:19:01.062Z,60.83
2022-12-25T05:21:31.336Z,118.90
2022-12-25T05:24:01.318Z,176.30
2022-12-25T05:26:34.207Z,173.47
2022-12-25T05:29:04.092Z,297.37
2022-12-25T05:31:34.537Z,174.63
2022-12-25T05:34:04.569Z,296.10
2022-12-25T05:36:34.840Z,133.77
2022-12-25T05:39:04.785Z,142.17
2022-12-25T05:41:37.603Z,235.20
2022-12-25T05:44:07.788Z,346.70
2022-12-25T05:46:38.104Z,194.83
2022-12-25T05:49:08.205Z,375.90
2022-12-25T05:51:38.561Z,329.63
2022-12-25T05:54:08.583Z,138.30
2022-12-25T05:56:42.766Z,161.47
2022-12-25T05:59:12.779Z,119.07
2022-12-25T06:01:43.170Z,196.03
2022-12-25T06:04:13.503Z,143.87
2022-12-25T06:06:44.131Z,164.57
2022-12-25T06:09:15.856Z,64.00
2022-12-25T06:11:48.868Z,104.07
2022-12-25T06:14:18.959Z,65.70
2022-12-25T06:16:49.285Z,61.70
2022-12-25T06:19:19.229Z,179.53
2022-12-25T06:21:49.652Z,135.80
2022-12-25T06:24:21.634Z,138.13
2022-12-25T06:26:54.762Z,148.13
2022-12-25T06:29:24.795Z,209.90
2022-12-25T06:31:57.359Z,76.87
2022-12-25T06:34:27.690Z,120.47
2022-12-25T06:36:58.098Z,107.33
2022-12-25T06:39:28.174Z,146.23
2022-12-25T06:42:01.146Z,252.83
2022-12-25T06:44:31.123Z,291.43
2022-12-25T06:47:01.462Z,269.20
2022-12-25T06:49:31.607Z,162.20
2022-12-25T06:52:01.865Z,199.80
2022-12-25T06:54:31.903Z,201.90
2022-12-25T06:57:04.752Z,395.13
2022-12-25T06:59:34.689Z,238.80
2022-12-25T07:02:05.088Z,186.10
2022-12-25T07:04:39.635Z,235.13
2022-12-25T07:07:11.553Z,169.57
2022-12-25T07:09:42.618Z,262.87
2022-12-25T07:12:21.330Z,297.47
2022-12-25T07:14:51.492Z,285.17
2022-12-25T07:17:25.157Z,234.93
2022-12-25T07:19:56.638Z,301.20
2022-12-25T07:22:27.081Z,443.87
2022-12-25T07:24:59.975Z,307.83
2022-12-25T07:27:33.334Z,308.93
2022-12-25T07:30:03.386Z,355.73
2022-12-25T07:32:33.883Z,290.80
2022-12-25T07:35:03.885Z,324.33
2022-12-25T07:37:34.094Z,314.37
2022-12-25T07:40:04.114Z,437.20
2022-12-25T07:42:37.091Z,179.30
2022-12-25T07:45:08.149Z,418.93
2022-12-25T07:47:38.403Z,502.00
2022-12-25T07:50:10.165Z,320.20
2022-12-25T07:52:43.672Z,364.00
2022-12-25T07:55:13.921Z,308.13
2022-12-25T07:57:46.798Z,242.30
2022-12-25T08:00:18.410Z,251.83
2022-12-25T08:02:51.685Z,173.23
2022-12-25T08:05:21.884Z,289.63
2022-12-25T08:07:57.650Z,142.67
2022-12-25T08:10:28.521Z,262.67
2022-12-25T08:13:01.990Z,291.47
2022-12-25T08:15:33.961Z,205.70
2022-12-25T08:18:04.552Z,194.10
2022-12-25T08:20:34.859Z,199.50
2022-12-25T08:23:05.175Z,234.53
2022-12-25T08:25:35.480Z,164.10
2022-12-25T08:28:08.354Z,228.67
2022-12-25T08:30:41.096Z,330.17
2022-12-25T08:33:11.618Z,181.93
2022-12-25T08:35:41.541Z,178.60
2022-12-25T08:38:12.000Z,187.90
2022-12-25T08:40:42.120Z,91.40
2022-12-25T08:43:15.007Z,63.17
2022-12-25T08:45:45.202Z,40.10
2022-12-25T08:48:16.083Z,65.87
2022-12-25T08:50:48.187Z,30.90
2022-12-25T08:53:19.281Z,26.63
2022-12-25T08:55:49.300Z,21.60
2022-12-25T08:58:22.149Z,23.20
2022-12-25T09:00:52.189Z,154.70
2022-12-25T09:03:22.584Z,64.67
2022-12-25T09:05:52.743Z,33.07
2022-12-25T09:08:23.313Z,18.60
2022-12-25T09:10:53.338Z,13.63
2022-12-25T09:13:26.459Z,19.90
2022-12-25T09:15:56.632Z,26.83
2022-12-25T09:18:27.054Z,18.10
2022-12-25T09:21:01.703Z,16.03
2022-12-25T09:23:32.404Z,16.47
2022-12-25T09:26:02.718Z,23.67
2022-12-25T09:28:35.992Z,15.23
2022-12-25T09:31:07.244Z,20.70
2022-12-25T09:33:37.968Z,28.80
2022-12-25T09:36:11.880Z,68.90
2022-12-25T09:38:44.128Z,25.07
2022-12-25T09:41:24.559Z,96.03
2022-12-25T09:44:08.576Z,37.77
2022-12-25T09:46:53.903Z,78.70
2022-12-25T09:49:30.415Z,92.43
2022-12-25T09:52:05.089Z,111.20
2022-12-25T09:54:44.460Z,61.37
2022-12-25T09:57:17.354Z,61.03
2022-12-25T09:59:50.292Z,46.20
2022-12-25T10:02:50.897Z,213.27
2022-12-25T10:05:40.424Z,125.20
2022-12-25T10:08:22.941Z,57.50
2022-12-25T10:11:05.596Z,66.60
2022-12-25T10:13:58.760Z,17.93
2022-12-25T10:16:37.679Z,17.60
2022-12-25T10:19:24.241Z,58.00
2022-12-25T10:21:59.555Z,31.37
2022-12-25T10:24:36.489Z,31.33
2022-12-25T10:27:16.221Z,60.83
2022-12-25T10:29:52.826Z,18.70
2022-12-25T10:32:26.013Z,41.20
2022-12-25T10:34:58.324Z,24.40
2022-12-25T10:37:29.032Z,62.27
2022-12-25T10:39:59.528Z,67.13
2022-12-25T10:42:40.531Z,37.93
2022-12-25T10:45:12.414Z,31.23
2022-12-25T10:47:55.007Z,19.77
2022-12-25T10:50:30.321Z,20.57
2022-12-25T10:53:04.747Z,20.43
2022-12-25T10:55:36.943Z,24.63
2022-12-25T10:58:09.049Z,18.80
2022-12-25T11:00:39.353Z,18.00
2022-12-25T11:03:24.754Z,21.43
2022-12-25T11:05:55.417Z,27.80
2022-12-25T11:08:28.404Z,216.07
2022-12-25T11:11:06.175Z,209.63
2022-12-25T11:13:40.516Z,25.97
2022-12-25T11:16:17.903Z,20.47
2022-12-25T11:18:53.578Z,21.97
2022-12-25T11:21:26.947Z,23.57
2022-12-25T11:24:02.332Z,26.53
2022-12-25T11:26:37.841Z,26.70
2022-12-25T11:29:27.713Z,28.10
2022-12-25T11:32:01.361Z,35.90
2022-12-25T11:34:38.915Z,18.70
2022-12-25T11:37:17.203Z,89.07
2022-12-25T11:39:47.774Z,35.00
2022-12-25T11:42:27.203Z,25.87
2022-12-25T11:45:04.133Z,18.60
2022-12-25T11:47:39.991Z,21.60
2022-12-25T11:50:23.678Z,20.93
2022-12-25T11:52:58.096Z,21.93
2022-12-25T11:55:38.120Z,18.97
2022-12-25T11:58:18.513Z,18.53
2022-12-25T12:00:50.757Z,16.53
2022-12-25T12:03:27.005Z,21.97
2022-12-25T12:06:06.780Z,17.23
2022-12-25T12:08:38.128Z,18.67
2022-12-25T12:11:20.588Z,19.87
2022-12-25T12:14:04.295Z,15.90
2022-12-25T12:16:34.760Z,18.87
2022-12-25T12:19:13.958Z,17.90
2022-12-25T12:21:52.481Z,21.57
2022-12-25T12:24:24.350Z,25.63
2022-12-25T12:27:05.029Z,19.10
2022-12-25T12:29:42.320Z,20.57
2022-12-25T12:32:31.668Z,17.73
2022-12-25T12:35:03.387Z,19.70
2022-12-25T12:37:39.399Z,19.17
2022-12-25T12:40:24.724Z,18.30
2022-12-25T12:42:56.124Z,17.70
2022-12-25T12:45:30.346Z,16.40
2022-12-25T12:48:01.738Z,20.33
2022-12-25T12:50:39.989Z,17.43
2022-12-25T12:53:38.221Z,16.00
2022-12-25T12:56:14.308Z,21.23
2022-12-25T12:58:50.096Z,27.00
2022-12-25T13:01:36.090Z,81.97
2022-12-25T13:04:29.968Z,26.83
2022-12-25T13:07:13.704Z,19.13
2022-12-25T13:10:00.478Z,22.90
2022-12-25T13:12:30.656Z,17.53
2022-12-25T13:15:11.225Z,19.30
2022-12-25T13:17:46.963Z,18.87
2022-12-25T13:20:27.967Z,20.77
2022-12-25T13:22:58.001Z,18.17
2022-12-25T13:25:31.632Z,16.53
2022-12-25T13:28:01.633Z,20.50
2022-12-25T13:30:32.350Z,15.10
2022-12-25T13:33:02.435Z,18.73
2022-12-25T13:35:33.078Z,14.40
2022-12-25T13:38:03.180Z,13.87
2022-12-25T13:40:37.205Z,18.47
2022-12-25T13:43:05.364Z,17.90
2022-12-25T13:45:38.240Z,18.33
2022-12-25T13:48:17.395Z,20.03
2022-12-25T13:50:48.762Z,19.50
2022-12-25T13:53:20.058Z,17.57
2022-12-25T13:55:57.468Z,21.47
2022-12-25T13:58:33.223Z,21.30
2022-12-25T14:01:08.084Z,14.30
2022-12-25T14:03:42.644Z,58.93
2022-12-25T14:06:21.578Z,26.70
2022-12-25T14:08:57.644Z,25.67
2022-12-25T14:11:41.015Z,29.37
2022-12-25T14:14:19.956Z,22.40
2022-12-25T14:16:53.559Z,21.73
2022-12-25T14:19:27.616Z,22.53
2022-12-25T14:22:02.018Z,21.30
2022-12-25T14:24:34.097Z,24.33
2022-12-25T14:27:09.689Z,24.17
2022-12-25T14:29:42.250Z,22.00
2022-12-25T14:32:18.188Z,20.33
2022-12-25T14:34:50.404Z,23.37
2022-12-25T14:37:23.826Z,26.67
2022-12-25T14:40:02.129Z,24.27
2022-12-25T14:42:37.492Z,19.47
2022-12-25T14:45:09.677Z,24.60
2022-12-25T14:47:53.615Z,25.57
2022-12-25T14:50:30.455Z,25.63
2022-12-25T14:53:09.335Z,21.93
2022-12-25T14:55:40.294Z,28.03
2022-12-25T14:58:24.632Z,30.63
2022-12-25T15:00:57.991Z,23.67
2022-12-25T15:03:32.033Z,20.87
2022-12-25T15:06:03.991Z,24.93
2022-12-25T15:08:35.877Z,20.80
2022-12-25T15:11:05.900Z,26.23
2022-12-25T15:13:38.749Z,27.90
2022-12-25T15:16:15.292Z,23.20
2022-12-25T15:18:48.529Z,25.27
2022-12-25T15:21:20.365Z,21.43
2022-12-25T15:23:50.748Z,26.87
2022-12-25T15:26:20.828Z,29.37
2022-12-25T15:28:54.005Z,24.53
2022-12-25T15:31:26.130Z,25.07
2022-12-25T15:33:58.439Z,27.17
2022-12-25T15:36:29.595Z,24.33
2022-12-25T15:39:00.436Z,26.30
2022-12-25T15:41:46.910Z,24.87
2022-12-25T15:44:20.590Z,27.93
2022-12-25T15:46:51.348Z,25.23
2022-12-25T15:49:22.263Z,27.50
2022-12-25T15:51:52.557Z,25.47
2022-12-25T15:54:23.461Z,23.10
2022-12-25T15:56:56.870Z,27.47
2022-12-25T15:59:30.749Z,25.10
2022-12-25T16:02:03.218Z,27.57
2022-12-25T16:04:34.377Z,21.47
2022-12-25T16:07:04.745Z,20.17
2022-12-25T16:09:35.493Z,30.03
2022-12-25T16:12:06.094Z,34.30
2022-12-25T16:14:39.174Z,31.27
2022-12-25T16:17:15.656Z,27.40
2022-12-25T16:19:47.153Z,25.43
2022-12-25T16:22:21.781Z,32.00
2022-12-25T16:24:52.943Z,33.97
2022-12-25T16:27:24.017Z,27.97
2022-12-25T16:30:04.244Z,22.43
2022-12-25T16:32:34.625Z,43.60
2022-12-25T16:35:05.529Z,28.70
2022-12-25T16:37:36.676Z,31.93
2022-12-25T16:40:08.440Z,32.53
2022-12-25T16:42:38.780Z,25.80
2022-12-25T16:45:12.807Z,31.87
2022-12-25T16:47:42.953Z,31.63
2022-12-25T16:50:13.853Z,30.80
2022-12-25T16:52:43.795Z,32.07
2022-12-25T16:55:14.122Z,30.67
2022-12-25T16:57:47.654Z,29.67
2022-12-25T17:00:22.086Z,36.83
2022-12-25T17:02:55.972Z,26.83
2022-12-25T17:05:26.987Z,30.70
2022-12-25T17:07:56.930Z,27.83
2022-12-25T17:10:27.543Z,30.23
2022-12-25T17:12:57.823Z,29.30
2022-12-25T17:15:30.756Z,37.70
2022-12-25T17:18:01.059Z,26.40
2022-12-25T17:20:31.421Z,25.60
2022-12-25T17:23:01.797Z,30.20
2022-12-25T17:25:32.620Z,34.30
2022-12-25T17:28:02.771Z,33.90
2022-12-25T17:30:36.246Z,35.90
2022-12-25T17:33:07.096Z,30.87
2022-12-25T17:35:39.754Z,31.30
2022-12-25T17:38:10.145Z,27.20
2022-12-25T17:40:40.872Z,29.77
2022-12-25T17:43:15.592Z,33.17
2022-12-25T17:45:52.405Z,37.93
2022-12-25T17:48:23.628Z,36.17
2022-12-25T17:50:54.611Z,32.50
2022-12-25T17:53:28.096Z,35.17
2022-12-25T17:56:00.180Z,33.00
2022-12-25T17:58:30.827Z,37.23
2022-12-25T18:01:08.821Z,29.70
2022-12-25T18:03:40.245Z,41.00
2022-12-25T18:06:14.813Z,32.57
2022-12-25T18:08:46.927Z,36.10
2022-12-25T18:11:20.601Z,42.23
2022-12-25T18:13:53.775Z,37.27
2022-12-25T18:16:29.936Z,43.53
2022-12-25T18:19:01.754Z,36.23
2022-12-25T18:21:33.193Z,41.27
2022-12-25T18:24:05.263Z,38.97
2022-12-25T18:26:36.435Z,39.07
2022-12-25T18:29:07.469Z,37.63
2022-12-25T18:31:40.431Z,37.97
2022-12-25T18:34:10.768Z,41.90
2022-12-25T18:36:41.802Z,46.80
2022-12-25T18:39:15.682Z,38.10
2022-12-25T18:41:58.799Z,41.20
2022-12-25T18:44:32.115Z,40.73
2022-12-25T18:47:05.935Z,44.30
2022-12-25T18:49:36.819Z,39.23
2022-12-25T18:52:47.929Z,41.20
2022-12-25T18:54:58.258Z,43.03
2022-12-25T18:57:29.289Z,42.13
2022-12-25T19:00:03.092Z,44.03
2022-12-25T19:02:36.379Z,49.00
2022-12-25T19:05:08.858Z,39.17
2022-12-25T19:07:40.011Z,46.80
2022-12-25T19:10:11.460Z,47.93
2022-12-25T19:12:42.043Z,44.43
2022-12-25T19:15:13.051Z,49.63
2022-12-25T19:17:46.050Z,43.40
2022-12-25T19:20:16.030Z,44.33
2022-12-25T19:22:46.288Z,38.43
2022-12-25T19:25:18.342Z,46.17
2022-12-25T19:27:48.694Z,44.20
2022-12-25T19:30:18.743Z,40.13
2022-12-25T19:32:51.922Z,42.57
2022-12-25T19:35:22.008Z,34.50
2022-12-25T19:37:54.350Z,41.00
2022-12-25T19:40:26.412Z,37.03
2022-12-25T19:42:56.967Z,35.57
2022-12-25T19:45:27.056Z,41.23
2022-12-25T19:48:00.705Z,34.40
2022-12-25T19:50:37.170Z,40.30
2022-12-25T19:53:10.538Z,41.30
2022-12-25T19:55:40.550Z,31.20
2022-12-25T19:58:10.895Z,44.67
2022-12-25T20:00:41.904Z,44.10
2022-12-25T20:03:14.988Z,43.93
2022-12-25T20:05:47.311Z,33.83
2022-12-25T20:08:17.541Z,23.77
2022-12-25T20:10:52.230Z,19.30
2022-12-25T20:13:22.640Z,21.53
2022-12-25T20:15:53.050Z,30.53
2022-12-25T20:18:25.994Z,33.30
2022-12-25T20:21:03.299Z,34.47
2022-12-25T20:23:34.044Z,35.57
2022-12-25T20:26:05.509Z,38.13
2022-12-25T20:28:37.932Z,34.97
2022-12-25T20:31:09.208Z,37.70
2022-12-25T20:33:42.105Z,35.93
2022-12-25T20:36:12.847Z,39.77
2022-12-25T20:38:43.531Z,32.80
2022-12-25T20:41:31.180Z,41.00
2022-12-25T20:44:01.929Z,34.50
2022-12-25T20:46:32.000Z,35.17
2022-12-25T20:49:05.111Z,35.37
2022-12-25T20:51:35.082Z,42.10
2022-12-25T20:54:08.624Z,36.60
2022-12-25T20:56:40.323Z,35.10
2022-12-25T20:59:12.615Z,33.83
2022-12-25T21:01:42.823Z,36.10
2022-12-25T21:04:16.655Z,32.70
2022-12-25T21:06:46.854Z,31.57
2022-12-25T21:09:17.176Z,33.07
2022-12-25T21:11:47.221Z,27.53
2022-12-25T21:14:20.567Z,28.53
2022-12-25T21:16:50.920Z,28.17
2022-12-25T21:19:24.025Z,31.30
2022-12-25T21:21:54.703Z,40.10
2022-12-25T21:24:25.001Z,33.30
2022-12-25T21:26:55.101Z,23.57
2022-12-25T21:30:14.933Z,33.50
2022-12-25T21:32:58.030Z,26.37
2022-12-25T21:35:30.950Z,28.40
2022-12-25T21:38:00.999Z,27.60
2022-12-25T21:40:31.367Z,27.93
2022-12-25T21:43:01.319Z,32.20
2022-12-25T21:45:32.282Z,26.93
2022-12-25T21:48:03.586Z,34.33
2022-12-25T21:50:49.084Z,35.47
2022-12-25T21:53:19.917Z,32.70
2022-12-25T21:56:02.390Z,26.43
2022-12-25T21:58:32.461Z,35.93
2022-12-25T22:01:04.896Z,32.73
2022-12-25T22:03:35.043Z,28.73
2022-12-25T22:06:21.807Z,30.80
2022-12-25T22:08:51.975Z,29.73
2022-12-25T22:11:34.878Z,28.87
2022-12-25T22:14:17.404Z,26.90
2022-12-25T22:17:00.877Z,26.03
2022-12-25T22:19:44.380Z,29.77
2022-12-25T22:22:21.463Z,28.70
2022-12-25T22:24:52.771Z,25.30
2022-12-25T22:27:24.074Z,26.27
2022-12-25T22:29:55.781Z,28.27
2022-12-25T22:32:27.013Z,25.57
2022-12-25T22:34:58.412Z,28.33
2022-12-25T22:37:31.722Z,33.27
2022-12-25T22:40:03.486Z,33.10
2022-12-25T22:42:34.856Z,23.50
2022-12-25T22:45:06.216Z,24.97
2022-12-25T22:47:38.300Z,20.70
2022-12-25T22:50:11.327Z,27.37
2022-12-25T22:52:46.904Z,19.70
2022-12-25T22:55:21.036Z,29.53
2022-12-25T22:57:52.811Z,21.57
2022-12-25T23:00:23.619Z,20.63
2022-12-25T23:02:54.695Z,19.07
2022-12-25T23:05:26.388Z,21.33
2022-12-25T23:08:03.419Z,15.87
2022-12-25T23:10:40.732Z,15.13
2022-12-25T23:14:00.736Z,15.67
2022-12-25T23:16:34.951Z,16.20
2022-12-25T23:19:18.648Z,15.97
2022-12-25T23:22:01.602Z,16.00
2022-12-25T23:24:47.711Z,16.33
2022-12-25T23:27:18.708Z,17.83
2022-12-25T23:29:46.610Z,16.83
2022-12-25T23:32:22.497Z,12.50
2022-12-25T23:34:52.912Z,11.80
2022-12-25T23:37:23.675Z,15.67
2022-12-25T23:39:56.376Z,12.30
2022-12-25T23:42:27.523Z,12.53
2022-12-25T23:44:57.668Z,12.73
2022-12-25T23:47:28.259Z,12.70
2022-12-25T23:49:58.171Z,11.23
2022-12-25T23:52:28.714Z,14.90
2022-12-25T23:55:01.309Z,9.80
2022-12-25T23:57:31.857Z,12.93
